sensor_id;sensor_type;location;lat;lon;timestamp;pressure;altitude;pressure_sealevel;temperature;humidity
72370;BME280;60343;-32.030;115.880;2024-01-30T00:02:30;101922.66;;;26.77;37.63
72370;BME280;60343;-32.030;115.880;2024-01-30T00:05:06;101922.69;;;26.94;37.60
72370;BME280;60343;-32.030;115.880;2024-01-30T00:07:40;101924.75;;;27.25;36.93
72370;BME280;60343;-32.030;115.880;2024-01-30T00:10:14;101921.59;;;27.16;36.73
72370;BME280;60343;-32.030;115.880;2024-01-30T00:12:54;101926.91;;;27.45;36.94
72370;BME280;60343;-32.030;115.880;2024-01-30T00:15:29;101922.38;;;27.82;36.32
72370;BME280;60343;-32.030;115.880;2024-01-30T00:18:04;101928.94;;;27.76;36.01
72370;BME280;60343;-32.030;115.880;2024-01-30T00:20:40;101921.13;;;27.68;35.53
72370;BME280;60343;-32.030;115.880;2024-01-30T00:23:14;101930.31;;;27.79;35.92
72370;BME280;60343;-32.030;115.880;2024-01-30T00:25:49;101934.06;;;27.94;36.14
72370;BME280;60343;-32.030;115.880;2024-01-30T00:28:29;101933.06;;;28.05;35.32
72370;BME280;60343;-32.030;115.880;2024-01-30T00:31:03;101929.78;;;28.35;35.19
72370;BME280;60343;-32.030;115.880;2024-01-30T00:33:39;101936.00;;;28.21;35.07
72370;BME280;60343;-32.030;115.880;2024-01-30T00:36:13;101927.47;;;27.95;36.03
72370;BME280;60343;-32.030;115.880;2024-01-30T00:38:49;101929.13;;;28.23;35.07
72370;BME280;60343;-32.030;115.880;2024-01-30T00:41:24;101920.22;;;28.48;35.14
72370;BME280;60343;-32.030;115.880;2024-01-30T00:44:04;101921.56;;;28.82;34.47
72370;BME280;60343;-32.030;115.880;2024-01-30T00:46:38;101918.16;;;29.07;33.88
72370;BME280;60343;-32.030;115.880;2024-01-30T00:49:13;101921.03;;;29.32;33.17
72370;BME280;60343;-32.030;115.880;2024-01-30T00:51:47;101911.97;;;29.47;32.98
72370;BME280;60343;-32.030;115.880;2024-01-30T00:54:21;101912.53;;;29.59;33.01
72370;BME280;60343;-32.030;115.880;2024-01-30T00:56:56;101915.06;;;29.66;33.11
72370;BME280;60343;-32.030;115.880;2024-01-30T00:59:36;101907.69;;;30.02;32.64
72370;BME280;60343;-32.030;115.880;2024-01-30T01:02:10;101899.38;;;30.27;32.26
72370;BME280;60343;-32.030;115.880;2024-01-30T01:04:44;101909.31;;;30.33;32.03
72370;BME280;60343;-32.030;115.880;2024-01-30T01:07:19;101907.09;;;30.40;31.53
72370;BME280;60343;-32.030;115.880;2024-01-30T01:09:54;101904.59;;;30.44;31.59
72370;BME280;60343;-32.030;115.880;2024-01-30T01:12:28;101905.19;;;30.25;31.68
72370;BME280;60343;-32.030;115.880;2024-01-30T01:15:09;101901.88;;;30.49;31.44
72370;BME280;60343;-32.030;115.880;2024-01-30T01:17:43;101906.84;;;30.57;31.03
72370;BME280;60343;-32.030;115.880;2024-01-30T01:20:17;101901.81;;;30.74;31.12
72370;BME280;60343;-32.030;115.880;2024-01-30T01:22:52;101903.47;;;30.80;31.12
72370;BME280;60343;-32.030;115.880;2024-01-30T01:25:27;101890.69;;;30.94;30.78
72370;BME280;60343;-32.030;115.880;2024-01-30T01:28:01;101894.25;;;31.00;30.49
72370;BME280;60343;-32.030;115.880;2024-01-30T01:30:41;101895.66;;;31.07;30.33
72370;BME280;60343;-32.030;115.880;2024-01-30T01:33:15;101893.63;;;31.28;30.29
72370;BME280;60343;-32.030;115.880;2024-01-30T01:35:50;101885.97;;;31.54;29.48
72370;BME280;60343;-32.030;115.880;2024-01-30T01:38:25;101883.69;;;31.71;29.57
72370;BME280;60343;-32.030;115.880;2024-01-30T01:40:59;101881.44;;;31.78;29.62
72370;BME280;60343;-32.030;115.880;2024-01-30T01:43:33;101880.06;;;32.10;29.49
72370;BME280;60343;-32.030;115.880;2024-01-30T01:46:13;101874.41;;;32.25;28.84
72370;BME280;60343;-32.030;115.880;2024-01-30T01:48:47;101867.88;;;32.40;28.75
72370;BME280;60343;-32.030;115.880;2024-01-30T01:51:22;101873.13;;;32.70;28.16
72370;BME280;60343;-32.030;115.880;2024-01-30T01:53:58;101866.06;;;32.83;28.30
72370;BME280;60343;-32.030;115.880;2024-01-30T01:56:34;101865.09;;;32.92;28.00
72370;BME280;60343;-32.030;115.880;2024-01-30T01:59:09;101864.88;;;32.89;27.82
72370;BME280;60343;-32.030;115.880;2024-01-30T02:01:48;101858.97;;;32.71;28.05
72370;BME280;60343;-32.030;115.880;2024-01-30T02:04:23;101855.25;;;32.81;27.99
72370;BME280;60343;-32.030;115.880;2024-01-30T02:06:57;101859.47;;;33.21;28.01
72370;BME280;60343;-32.030;115.880;2024-01-30T02:09:31;101857.41;;;33.69;27.42
72370;BME280;60343;-32.030;115.880;2024-01-30T02:12:06;101855.97;;;34.23;26.79
72370;BME280;60343;-32.030;115.880;2024-01-30T02:14:46;101846.31;;;34.34;26.18
72370;BME280;60343;-32.030;115.880;2024-01-30T02:17:28;101842.06;;;34.36;26.05
72370;BME280;60343;-32.030;115.880;2024-01-30T02:20:03;101844.56;;;34.65;26.26
72370;BME280;60343;-32.030;115.880;2024-01-30T02:22:44;101836.72;;;34.67;25.49
72370;BME280;60343;-32.030;115.880;2024-01-30T02:25:18;101825.56;;;34.26;25.69
72370;BME280;60343;-32.030;115.880;2024-01-30T02:27:53;101824.53;;;34.22;26.59
72370;BME280;60343;-32.030;115.880;2024-01-30T02:30:27;101826.75;;;34.07;26.37
72370;BME280;60343;-32.030;115.880;2024-01-30T02:33:01;101818.00;;;33.99;26.11
72370;BME280;60343;-32.030;115.880;2024-01-30T02:35:35;101814.88;;;34.20;25.79
72370;BME280;60343;-32.030;115.880;2024-01-30T02:38:16;101813.03;;;34.29;26.04
72370;BME280;60343;-32.030;115.880;2024-01-30T02:40:50;101803.97;;;34.37;26.07
72370;BME280;60343;-32.030;115.880;2024-01-30T02:43:24;101801.38;;;34.27;26.12
72370;BME280;60343;-32.030;115.880;2024-01-30T02:45:59;101795.63;;;34.23;25.71
72370;BME280;60343;-32.030;115.880;2024-01-30T02:48:33;101797.59;;;34.50;25.92
72370;BME280;60343;-32.030;115.880;2024-01-30T02:51:07;101796.16;;;34.80;25.70
72370;BME280;60343;-32.030;115.880;2024-01-30T02:53:47;101799.97;;;34.84;24.99
72370;BME280;60343;-32.030;115.880;2024-01-30T02:56:22;101785.91;;;35.03;25.13
72370;BME280;60343;-32.030;115.880;2024-01-30T02:58:56;101776.69;;;35.16;24.86
72370;BME280;60343;-32.030;115.880;2024-01-30T03:01:30;101780.78;;;35.32;24.95
72370;BME280;60343;-32.030;115.880;2024-01-30T03:04:05;101775.03;;;35.51;25.00
72370;BME280;60343;-32.030;115.880;2024-01-30T03:06:44;101768.38;;;35.60;24.25
72370;BME280;60343;-32.030;115.880;2024-01-30T03:09:23;101772.09;;;35.69;23.84
72370;BME280;60343;-32.030;115.880;2024-01-30T03:11:58;101770.28;;;35.74;25.46
72370;BME280;60343;-32.030;115.880;2024-01-30T03:14:32;101761.69;;;35.92;24.23
72370;BME280;60343;-32.030;115.880;2024-01-30T03:17:06;101755.22;;;36.05;23.66
72370;BME280;60343;-32.030;115.880;2024-01-30T03:19:40;101749.06;;;36.17;23.66
72370;BME280;60343;-32.030;115.880;2024-01-30T03:22:15;101737.94;;;36.26;23.49
72370;BME280;60343;-32.030;115.880;2024-01-30T03:24:54;101735.34;;;36.38;23.39
72370;BME280;60343;-32.030;115.880;2024-01-30T03:27:29;101732.94;;;36.53;22.63
72370;BME280;60343;-32.030;115.880;2024-01-30T03:30:03;101736.84;;;36.35;23.04
72370;BME280;60343;-32.030;115.880;2024-01-30T03:32:32;101734.81;;;36.27;22.99
72370;BME280;60343;-32.030;115.880;2024-01-30T03:35:07;101726.31;;;36.32;22.76
72370;BME280;60343;-32.030;115.880;2024-01-30T03:37:41;101728.47;;;36.44;22.96
72370;BME280;60343;-32.030;115.880;2024-01-30T03:40:21;101720.78;;;36.49;22.22
72370;BME280;60343;-32.030;115.880;2024-01-30T03:42:56;101708.47;;;36.59;22.73
72370;BME280;60343;-32.030;115.880;2024-01-30T03:45:30;101707.53;;;36.64;22.90
72370;BME280;60343;-32.030;115.880;2024-01-30T03:48:05;101696.56;;;36.76;21.83
72370;BME280;60343;-32.030;115.880;2024-01-30T03:50:40;101705.28;;;36.91;21.54
72370;BME280;60343;-32.030;115.880;2024-01-30T03:53:14;101695.56;;;37.06;22.33
72370;BME280;60343;-32.030;115.880;2024-01-30T03:55:55;101703.94;;;37.23;21.45
72370;BME280;60343;-32.030;115.880;2024-01-30T03:58:30;101680.63;;;37.36;21.33
72370;BME280;60343;-32.030;115.880;2024-01-30T04:01:04;101680.41;;;37.59;21.16
72370;BME280;60343;-32.030;115.880;2024-01-30T04:03:39;101682.88;;;37.60;21.10
72370;BME280;60343;-32.030;115.880;2024-01-30T04:06:13;101680.91;;;37.61;21.15
72370;BME280;60343;-32.030;115.880;2024-01-30T04:08:47;101676.06;;;37.78;20.46
72370;BME280;60343;-32.030;115.880;2024-01-30T04:11:28;101677.31;;;37.90;21.71
72370;BME280;60343;-32.030;115.880;2024-01-30T04:14:02;101669.56;;;38.04;19.38
72370;BME280;60343;-32.030;115.880;2024-01-30T04:16:37;101663.31;;;38.07;17.89
72370;BME280;60343;-32.030;115.880;2024-01-30T04:19:11;101654.78;;;37.95;18.58
72370;BME280;60343;-32.030;115.880;2024-01-30T04:21:46;101664.78;;;38.04;18.38
72370;BME280;60343;-32.030;115.880;2024-01-30T04:24:20;101660.06;;;38.26;18.14
72370;BME280;60343;-32.030;115.880;2024-01-30T04:27:00;101649.75;;;38.47;19.45
72370;BME280;60343;-32.030;115.880;2024-01-30T04:29:34;101644.41;;;38.54;17.64
72370;BME280;60343;-32.030;115.880;2024-01-30T04:32:09;101643.78;;;38.69;18.19
72370;BME280;60343;-32.030;115.880;2024-01-30T04:34:43;101637.84;;;38.50;18.80
72370;BME280;60343;-32.030;115.880;2024-01-30T04:37:17;101641.53;;;38.83;18.29
72370;BME280;60343;-32.030;115.880;2024-01-30T04:39:52;101633.94;;;39.04;17.75
72370;BME280;60343;-32.030;115.880;2024-01-30T04:42:32;101629.31;;;39.21;18.13
72370;BME280;60343;-32.030;115.880;2024-01-30T04:45:08;101625.53;;;39.50;18.56
72370;BME280;60343;-32.030;115.880;2024-01-30T04:47:42;101621.72;;;39.66;18.79
72370;BME280;60343;-32.030;115.880;2024-01-30T04:50:16;101617.75;;;39.67;17.74
72370;BME280;60343;-32.030;115.880;2024-01-30T04:52:51;101614.63;;;39.81;18.31
72370;BME280;60343;-32.030;115.880;2024-01-30T04:55:25;101614.50;;;40.02;17.96
72370;BME280;60343;-32.030;115.880;2024-01-30T04:58:05;101616.72;;;40.20;17.28
72370;BME280;60343;-32.030;115.880;2024-01-30T05:00:39;101609.28;;;40.40;17.79
72370;BME280;60343;-32.030;115.880;2024-01-30T05:03:13;101596.13;;;40.56;17.67
72370;BME280;60343;-32.030;115.880;2024-01-30T05:05:47;101598.06;;;40.40;16.86
72370;BME280;60343;-32.030;115.880;2024-01-30T05:08:21;101591.69;;;40.55;18.24
72370;BME280;60343;-32.030;115.880;2024-01-30T05:10:56;101596.41;;;40.63;16.89
72370;BME280;60343;-32.030;115.880;2024-01-30T05:13:36;101585.97;;;40.64;16.71
72370;BME280;60343;-32.030;115.880;2024-01-30T05:16:10;101581.47;;;40.75;17.35
72370;BME280;60343;-32.030;115.880;2024-01-30T05:18:45;101579.72;;;40.70;16.17
72370;BME280;60343;-32.030;115.880;2024-01-30T05:21:19;101586.22;;;40.19;17.60
72370;BME280;60343;-32.030;115.880;2024-01-30T05:23:53;101576.63;;;40.08;17.39
72370;BME280;60343;-32.030;115.880;2024-01-30T05:26:27;101574.03;;;40.27;18.30
72370;BME280;60343;-32.030;115.880;2024-01-30T05:29:07;101577.19;;;40.13;17.77
72370;BME280;60343;-32.030;115.880;2024-01-30T05:31:41;101564.38;;;40.40;17.39
72370;BME280;60343;-32.030;115.880;2024-01-30T05:34:16;101563.28;;;40.57;19.14
72370;BME280;60343;-32.030;115.880;2024-01-30T05:36:50;101561.38;;;40.61;21.23
72370;BME280;60343;-32.030;115.880;2024-01-30T05:39:25;101549.56;;;40.55;21.32
72370;BME280;60343;-32.030;115.880;2024-01-30T05:42:01;101550.44;;;40.04;21.31
72370;BME280;60343;-32.030;115.880;2024-01-30T05:44:40;101547.84;;;40.11;20.96
72370;BME280;60343;-32.030;115.880;2024-01-30T05:47:14;101541.06;;;40.12;20.28
72370;BME280;60343;-32.030;115.880;2024-01-30T05:49:50;101534.47;;;40.32;20.56
72370;BME280;60343;-32.030;115.880;2024-01-30T05:52:24;101539.50;;;40.39;19.98
72370;BME280;60343;-32.030;115.880;2024-01-30T05:54:58;101533.94;;;40.54;19.33
72370;BME280;60343;-32.030;115.880;2024-01-30T05:57:33;101528.03;;;40.59;19.94
72370;BME280;60343;-32.030;115.880;2024-01-30T06:00:14;101528.09;;;40.75;18.65
72370;BME280;60343;-32.030;115.880;2024-01-30T06:02:50;101524.13;;;40.76;19.25
72370;BME280;60343;-32.030;115.880;2024-01-30T06:05:24;101518.50;;;40.76;19.79
72370;BME280;60343;-32.030;115.880;2024-01-30T06:07:58;101517.94;;;40.70;18.90
72370;BME280;60343;-32.030;115.880;2024-01-30T06:10:33;101516.88;;;40.47;20.30
72370;BME280;60343;-32.030;115.880;2024-01-30T06:13:07;101517.31;;;40.21;19.53
72370;BME280;60343;-32.030;115.880;2024-01-30T06:15:47;101511.44;;;39.86;20.44
72370;BME280;60343;-32.030;115.880;2024-01-30T06:18:22;101512.44;;;39.94;21.36
72370;BME280;60343;-32.030;115.880;2024-01-30T06:20:58;101517.22;;;40.06;20.73
72370;BME280;60343;-32.030;115.880;2024-01-30T06:23:32;101513.81;;;40.12;19.57
72370;BME280;60343;-32.030;115.880;2024-01-30T06:26:07;101511.59;;;40.06;19.60
72370;BME280;60343;-32.030;115.880;2024-01-30T06:28:41;101505.47;;;39.88;20.14
72370;BME280;60343;-32.030;115.880;2024-01-30T06:31:21;101507.72;;;40.10;20.11
72370;BME280;60343;-32.030;115.880;2024-01-30T06:33:55;101509.38;;;40.23;19.52
72370;BME280;60343;-32.030;115.880;2024-01-30T06:36:29;101504.78;;;40.31;19.77
72370;BME280;60343;-32.030;115.880;2024-01-30T06:39:04;101504.59;;;40.24;19.74
72370;BME280;60343;-32.030;115.880;2024-01-30T06:41:38;101500.28;;;40.42;20.50
72370;BME280;60343;-32.030;115.880;2024-01-30T06:44:14;101491.25;;;40.49;19.49
72370;BME280;60343;-32.030;115.880;2024-01-30T06:46:53;101487.69;;;40.64;20.64
72370;BME280;60343;-32.030;115.880;2024-01-30T06:49:28;101497.03;;;40.68;19.55
72370;BME280;60343;-32.030;115.880;2024-01-30T06:52:06;101490.34;;;40.60;19.71
72370;BME280;60343;-32.030;115.880;2024-01-30T06:54:40;101496.31;;;40.43;19.71
72370;BME280;60343;-32.030;115.880;2024-01-30T06:57:14;101484.13;;;40.11;19.47
72370;BME280;60343;-32.030;115.880;2024-01-30T06:59:48;101485.91;;;40.04;19.50
72370;BME280;60343;-32.030;115.880;2024-01-30T07:02:28;101486.66;;;39.64;19.98
72370;BME280;60343;-32.030;115.880;2024-01-30T07:05:03;101486.66;;;39.16;19.71
72370;BME280;60343;-32.030;115.880;2024-01-30T07:07:37;101486.41;;;38.96;20.95
72370;BME280;60343;-32.030;115.880;2024-01-30T07:10:11;101478.16;;;38.79;20.77
72370;BME280;60343;-32.030;115.880;2024-01-30T07:12:46;101478.16;;;38.67;20.86
72370;BME280;60343;-32.030;115.880;2024-01-30T07:15:21;101469.88;;;38.71;20.81
72370;BME280;60343;-32.030;115.880;2024-01-30T07:18:01;101479.47;;;38.28;20.78
72370;BME280;60343;-32.030;115.880;2024-01-30T07:20:37;101478.72;;;37.98;20.58
72370;BME280;60343;-32.030;115.880;2024-01-30T07:23:13;101474.44;;;37.21;21.42
72370;BME280;60343;-32.030;115.880;2024-01-30T07:25:47;101470.78;;;36.57;21.90
72370;BME280;60343;-32.030;115.880;2024-01-30T07:28:23;101470.19;;;36.34;23.27
72370;BME280;60343;-32.030;115.880;2024-01-30T07:30:57;101468.22;;;36.00;23.72
72370;BME280;60343;-32.030;115.880;2024-01-30T07:33:37;101475.25;;;35.81;23.90
72370;BME280;60343;-32.030;115.880;2024-01-30T07:36:12;101468.94;;;35.49;24.78
72370;BME280;60343;-32.030;115.880;2024-01-30T07:38:46;101462.44;;;35.23;24.87
72370;BME280;60343;-32.030;115.880;2024-01-30T07:41:21;101458.53;;;35.24;25.52
72370;BME280;60343;-32.030;115.880;2024-01-30T07:43:55;101457.88;;;35.27;25.92
72370;BME280;60343;-32.030;115.880;2024-01-30T07:46:30;101458.38;;;35.29;26.11
72370;BME280;60343;-32.030;115.880;2024-01-30T07:49:09;101463.94;;;35.29;25.80
72370;BME280;60343;-32.030;115.880;2024-01-30T07:51:44;101466.88;;;34.93;25.96
72370;BME280;60343;-32.030;115.880;2024-01-30T07:54:18;101469.00;;;34.65;26.62
72370;BME280;60343;-32.030;115.880;2024-01-30T07:56:52;101464.97;;;34.49;25.78
72370;BME280;60343;-32.030;115.880;2024-01-30T07:59:26;101468.78;;;34.17;26.68
72370;BME280;60343;-32.030;115.880;2024-01-30T08:02:00;101471.66;;;33.90;28.02
72370;BME280;60343;-32.030;115.880;2024-01-30T08:04:40;101472.69;;;33.80;27.37
72370;BME280;60343;-32.030;115.880;2024-01-30T08:07:16;101469.00;;;33.71;28.00
72370;BME280;60343;-32.030;115.880;2024-01-30T08:09:51;101470.00;;;33.89;27.95
72370;BME280;60343;-32.030;115.880;2024-01-30T08:12:25;101473.38;;;33.99;27.98
72370;BME280;60343;-32.030;115.880;2024-01-30T08:15:00;101465.28;;;34.12;27.70
72370;BME280;60343;-32.030;115.880;2024-01-30T08:17:35;101462.84;;;34.10;27.40
72370;BME280;60343;-32.030;115.880;2024-01-30T08:20:15;101464.34;;;33.94;27.65
72370;BME280;60343;-32.030;115.880;2024-01-30T08:22:49;101467.84;;;33.86;28.47
72370;BME280;60343;-32.030;115.880;2024-01-30T08:25:23;101465.09;;;33.72;28.19
72370;BME280;60343;-32.030;115.880;2024-01-30T08:27:57;101463.97;;;33.73;28.24
72370;BME280;60343;-32.030;115.880;2024-01-30T08:30:32;101463.56;;;33.80;28.63
72370;BME280;60343;-32.030;115.880;2024-01-30T08:33:06;101472.28;;;33.87;28.80
72370;BME280;60343;-32.030;115.880;2024-01-30T08:35:46;101465.34;;;33.98;27.85
72370;BME280;60343;-32.030;115.880;2024-01-30T08:38:20;101466.25;;;34.07;26.51
72370;BME280;60343;-32.030;115.880;2024-01-30T08:40:55;101466.28;;;33.93;27.11
72370;BME280;60343;-32.030;115.880;2024-01-30T08:43:30;101467.78;;;33.77;27.20
72370;BME280;60343;-32.030;115.880;2024-01-30T08:46:04;101467.88;;;33.72;26.52
72370;BME280;60343;-32.030;115.880;2024-01-30T08:48:40;101469.31;;;33.56;27.29
72370;BME280;60343;-32.030;115.880;2024-01-30T08:51:20;101463.47;;;33.44;27.85
72370;BME280;60343;-32.030;115.880;2024-01-30T08:53:55;101465.34;;;33.35;28.05
72370;BME280;60343;-32.030;115.880;2024-01-30T08:56:30;101464.63;;;33.29;27.89
72370;BME280;60343;-32.030;115.880;2024-01-30T08:59:04;101461.84;;;33.29;28.29
72370;BME280;60343;-32.030;115.880;2024-01-30T09:01:38;101473.44;;;33.31;28.78
72370;BME280;60343;-32.030;115.880;2024-01-30T09:04:14;101474.56;;;33.16;29.13
72370;BME280;60343;-32.030;115.880;2024-01-30T09:06:54;101465.19;;;33.12;29.86
72370;BME280;60343;-32.030;115.880;2024-01-30T09:09:28;101465.38;;;33.02;29.91
72370;BME280;60343;-32.030;115.880;2024-01-30T09:12:02;101464.75;;;32.92;30.52
72370;BME280;60343;-32.030;115.880;2024-01-30T09:14:40;101468.97;;;32.89;30.19
72370;BME280;60343;-32.030;115.880;2024-01-30T09:17:14;101471.94;;;32.79;30.43
72370;BME280;60343;-32.030;115.880;2024-01-30T09:19:48;101471.59;;;32.67;31.33
72370;BME280;60343;-32.030;115.880;2024-01-30T09:22:28;101473.25;;;32.68;31.74
72370;BME280;60343;-32.030;115.880;2024-01-30T09:25:02;101471.78;;;32.70;32.04
72370;BME280;60343;-32.030;115.880;2024-01-30T09:27:37;101478.69;;;32.73;32.46
72370;BME280;60343;-32.030;115.880;2024-01-30T09:30:12;101476.47;;;32.89;32.34
72370;BME280;60343;-32.030;115.880;2024-01-30T09:32:46;101478.72;;;32.87;32.68
72370;BME280;60343;-32.030;115.880;2024-01-30T09:35:21;101475.31;;;32.76;32.76
72370;BME280;60343;-32.030;115.880;2024-01-30T09:38:00;101484.94;;;32.65;33.36
72370;BME280;60343;-32.030;115.880;2024-01-30T09:40:35;101481.19;;;32.74;33.31
72370;BME280;60343;-32.030;115.880;2024-01-30T09:43:11;101474.00;;;32.87;31.96
72370;BME280;60343;-32.030;115.880;2024-01-30T09:45:49;101487.69;;;32.97;30.96
72370;BME280;60343;-32.030;115.880;2024-01-30T09:48:24;101484.63;;;32.99;33.04
72370;BME280;60343;-32.030;115.880;2024-01-30T09:50:59;101483.88;;;32.93;33.61
72370;BME280;60343;-32.030;115.880;2024-01-30T09:53:41;101489.44;;;32.93;32.92
72370;BME280;60343;-32.030;115.880;2024-01-30T09:56:16;101494.16;;;32.93;31.21
72370;BME280;60343;-32.030;115.880;2024-01-30T09:58:50;101496.81;;;32.84;32.42
72370;BME280;60343;-32.030;115.880;2024-01-30T10:01:26;101494.59;;;32.67;34.17
72370;BME280;60343;-32.030;115.880;2024-01-30T10:04:01;101497.00;;;32.55;34.20
72370;BME280;60343;-32.030;115.880;2024-01-30T10:06:35;101500.00;;;32.40;34.00
72370;BME280;60343;-32.030;115.880;2024-01-30T10:09:15;101493.78;;;32.29;33.42
72370;BME280;60343;-32.030;115.880;2024-01-30T10:11:52;101500.78;;;32.08;35.15
72370;BME280;60343;-32.030;115.880;2024-01-30T10:14:26;101511.25;;;31.92;35.73
72370;BME280;60343;-32.030;115.880;2024-01-30T10:17:01;101505.06;;;31.77;35.35
72370;BME280;60343;-32.030;115.880;2024-01-30T10:19:37;101510.22;;;31.65;34.90
72370;BME280;60343;-32.030;115.880;2024-01-30T10:22:11;101514.84;;;31.45;35.63
72370;BME280;60343;-32.030;115.880;2024-01-30T10:24:51;101510.53;;;31.34;35.07
72370;BME280;60343;-32.030;115.880;2024-01-30T10:27:27;101514.63;;;31.18;35.38
72370;BME280;60343;-32.030;115.880;2024-01-30T10:30:01;101519.16;;;31.04;36.29
72370;BME280;60343;-32.030;115.880;2024-01-30T10:32:36;101523.97;;;30.93;36.76
72370;BME280;60343;-32.030;115.880;2024-01-30T10:35:10;101530.44;;;30.79;36.89
72370;BME280;60343;-32.030;115.880;2024-01-30T10:37:48;101535.06;;;30.54;37.58
72370;BME280;60343;-32.030;115.880;2024-01-30T10:40:39;101535.88;;;30.55;37.94
72370;BME280;60343;-32.030;115.880;2024-01-30T10:43:20;101538.25;;;30.33;38.15
72370;BME280;60343;-32.030;115.880;2024-01-30T10:45:59;101546.03;;;30.25;38.61
72370;BME280;60343;-32.030;115.880;2024-01-30T10:48:43;101556.91;;;30.07;39.29
72370;BME280;60343;-32.030;115.880;2024-01-30T10:51:19;101555.03;;;29.97;39.75
72370;BME280;60343;-32.030;115.880;2024-01-30T10:53:54;101552.56;;;29.80;40.04
72370;BME280;60343;-32.030;115.880;2024-01-30T10:56:36;101558.66;;;29.77;40.40
72370;BME280;60343;-32.030;115.880;2024-01-30T10:59:10;101565.63;;;29.60;40.97
72370;BME280;60343;-32.030;115.880;2024-01-30T11:01:46;101557.63;;;29.53;41.03
72370;BME280;60343;-32.030;115.880;2024-01-30T11:04:20;101561.81;;;29.30;41.88
72370;BME280;60343;-32.030;115.880;2024-01-30T11:06:55;101571.19;;;29.29;41.81
72370;BME280;60343;-32.030;115.880;2024-01-30T11:09:31;101570.94;;;29.11;42.38
72370;BME280;60343;-32.030;115.880;2024-01-30T11:12:22;101575.91;;;28.93;42.49
72370;BME280;60343;-32.030;115.880;2024-01-30T11:15:07;101574.81;;;28.74;42.90
72370;BME280;60343;-32.030;115.880;2024-01-30T11:17:49;101580.25;;;28.54;43.41
72370;BME280;60343;-32.030;115.880;2024-01-30T11:20:26;101576.97;;;28.47;43.92
72370;BME280;60343;-32.030;115.880;2024-01-30T11:23:03;101581.31;;;28.33;44.23
72370;BME280;60343;-32.030;115.880;2024-01-30T11:25:39;101586.22;;;28.15;44.52
72370;BME280;60343;-32.030;115.880;2024-01-30T11:28:22;101579.84;;;28.05;44.54
72370;BME280;60343;-32.030;115.880;2024-01-30T11:31:03;101591.88;;;27.89;45.25
72370;BME280;60343;-32.030;115.880;2024-01-30T11:33:39;101596.50;;;27.78;45.23
72370;BME280;60343;-32.030;115.880;2024-01-30T11:36:14;101600.84;;;27.69;45.56
72370;BME280;60343;-32.030;115.880;2024-01-30T11:38:49;101596.41;;;27.63;45.63
72370;BME280;60343;-32.030;115.880;2024-01-30T11:41:24;101610.09;;;27.53;46.10
72370;BME280;60343;-32.030;115.880;2024-01-30T11:44:05;101613.34;;;27.45;46.52
72370;BME280;60343;-32.030;115.880;2024-01-30T11:46:40;101604.94;;;27.24;46.81
72370;BME280;60343;-32.030;115.880;2024-01-30T11:49:14;101612.59;;;27.22;47.00
72370;BME280;60343;-32.030;115.880;2024-01-30T11:51:50;101607.50;;;26.99;47.44
72370;BME280;60343;-32.030;115.880;2024-01-30T11:54:25;101620.81;;;26.85;47.60
72370;BME280;60343;-32.030;115.880;2024-01-30T11:57:00;101619.28;;;26.73;47.83
72370;BME280;60343;-32.030;115.880;2024-01-30T11:59:40;101629.16;;;26.69;48.12
72370;BME280;60343;-32.030;115.880;2024-01-30T12:02:17;101626.47;;;26.74;47.78
72370;BME280;60343;-32.030;115.880;2024-01-30T12:04:51;101628.13;;;26.75;47.11
72370;BME280;60343;-32.030;115.880;2024-01-30T12:07:25;101634.56;;;26.85;46.44
72370;BME280;60343;-32.030;115.880;2024-01-30T12:09:59;101632.25;;;26.77;46.08
72370;BME280;60343;-32.030;115.880;2024-01-30T12:12:35;101636.38;;;26.75;45.72
72370;BME280;60343;-32.030;115.880;2024-01-30T12:15:16;101638.97;;;26.86;44.02
72370;BME280;60343;-32.030;115.880;2024-01-30T12:17:51;101639.78;;;26.87;43.83
72370;BME280;60343;-32.030;115.880;2024-01-30T12:20:26;101640.63;;;26.87;43.07
72370;BME280;60343;-32.030;115.880;2024-01-30T12:23:01;101643.59;;;26.86;42.96
72370;BME280;60343;-32.030;115.880;2024-01-30T12:25:36;101639.78;;;26.87;42.71
72370;BME280;60343;-32.030;115.880;2024-01-30T12:28:11;101644.00;;;26.95;41.90
72370;BME280;60343;-32.030;115.880;2024-01-30T12:30:51;101640.53;;;26.82;41.54
72370;BME280;60343;-32.030;115.880;2024-01-30T12:33:29;101640.16;;;26.96;40.81
72370;BME280;60343;-32.030;115.880;2024-01-30T12:36:03;101639.88;;;26.97;40.67
72370;BME280;60343;-32.030;115.880;2024-01-30T12:38:38;101647.88;;;26.99;40.51
72370;BME280;60343;-32.030;115.880;2024-01-30T12:41:12;101647.25;;;26.92;40.56
72370;BME280;60343;-32.030;115.880;2024-01-30T12:43:46;101652.50;;;26.93;40.44
72370;BME280;60343;-32.030;115.880;2024-01-30T12:46:28;101652.81;;;26.97;40.63
72370;BME280;60343;-32.030;115.880;2024-01-30T12:49:02;101662.34;;;26.89;40.93
72370;BME280;60343;-32.030;115.880;2024-01-30T12:51:36;101666.06;;;26.78;41.08
72370;BME280;60343;-32.030;115.880;2024-01-30T12:54:12;101670.66;;;26.72;41.67
72370;BME280;60343;-32.030;115.880;2024-01-30T12:56:46;101670.13;;;26.70;41.79
72370;BME280;60343;-32.030;115.880;2024-01-30T12:59:21;101665.13;;;26.67;41.91
72370;BME280;60343;-32.030;115.880;2024-01-30T13:02:01;101671.50;;;26.73;41.87
72370;BME280;60343;-32.030;115.880;2024-01-30T13:04:36;101676.28;;;26.56;42.45